Time;durP1;ratioP1;P1;durP2;ratioP2;P2;SDS_P1;SDS_P2;PMS_P1;PMS_P2;Temp;Humidity;BMP_temperature;BMP_pressure;BME280_temperature;BME280_humidity;BME280_pressure;Samples;Min_cycle;Max_cycle;Signal;HPM_P1;HPM_P2
2024/04/01 00:01:31;;;;;;;4.47;4.18;;;10.10;99.90;;;;;;5039585;28;20309;-71
2024/04/01 00:03:57;;;;;;;4.10;3.80;;;10.10;99.90;;;;;;5037956;28;20280;-72
2024/04/01 00:06:24;;;;;;;4.30;3.72;;;10.10;99.90;;;;;;5037149;28;20230;-71
2024/04/01 00:08:50;;;;;;;4.88;4.35;;;10.10;99.90;;;;;;5039235;28;20246;-72
2024/04/01 00:11:17;;;;;;;6.60;4.68;;;10.10;99.90;;;;;;5037821;28;20345;-72
2024/04/01 00:13:43;;;;;;;6.40;5.45;;;10.00;99.90;;;;;;5039703;28;20255;-72
2024/04/01 00:16:10;;;;;;;5.25;4.85;;;10.00;99.90;;;;;;5039126;28;20269;-72
2024/04/01 00:18:37;;;;;;;5.03;4.63;;;10.00;99.90;;;;;;5034777;28;20288;-72
2024/04/01 00:21:04;;;;;;;4.80;4.30;;;10.00;99.90;;;;;;5036999;28;20219;-71
2024/04/01 00:23:30;;;;;;;4.28;3.88;;;10.10;99.90;;;;;;5038090;28;20311;-72
2024/04/01 00:25:57;;;;;;;4.55;4.25;;;10.10;99.90;;;;;;5041053;28;20314;-73
2024/04/01 00:28:23;;;;;;;6.55;4.40;;;10.10;99.90;;;;;;5041424;28;20304;-73
2024/04/01 00:30:52;;;;;;;4.65;4.25;;;10.10;99.90;;;;;;5039893;28;20321;-72
2024/04/01 00:33:17;;;;;;;4.85;4.32;;;10.10;99.90;;;;;;5040415;28;20704;-72
2024/04/01 00:35:47;;;;;;;5.65;4.28;;;10.10;99.90;;;;;;5042575;28;20226;-71
2024/04/01 00:38:14;;;;;;;3.83;3.53;;;10.10;99.90;;;;;;5040942;28;20215;-72
2024/04/01 00:40:41;;;;;;;18.48;4.82;;;10.10;99.90;;;;;;5039961;28;20191;-70
2024/04/01 00:43:08;;;;;;;5.85;4.10;;;10.10;99.90;;;;;;5040628;28;20238;-72
2024/04/01 00:45:39;;;;;;;3.63;3.42;;;10.10;99.90;;;;;;5033347;28;20761;-71
2024/04/01 00:48:07;;;;;;;3.70;3.50;;;10.10;99.90;;;;;;5038206;28;20251;-71
2024/04/01 00:50:36;;;;;;;3.58;3.28;;;10.10;99.90;;;;;;5042201;28;20227;-71
2024/04/01 00:53:05;;;;;;;3.33;3.13;;;10.00;99.90;;;;;;5040399;28;20723;-71
2024/04/01 00:55:34;;;;;;;3.45;3.20;;;10.00;99.90;;;;;;5041232;28;20856;-71
2024/04/01 00:58:01;;;;;;;3.20;3.00;;;10.10;99.90;;;;;;5022104;28;20304;-72
2024/04/01 01:00:28;;;;;;;3.05;2.85;;;10.10;99.90;;;;;;5021034;28;20294;-72
2024/04/01 01:02:55;;;;;;;2.50;2.40;;;10.10;99.90;;;;;;5036395;28;20310;-71
2024/04/01 01:05:23;;;;;;;3.15;2.95;;;10.10;99.90;;;;;;5027322;28;20752;-72
2024/04/01 01:07:50;;;;;;;1.98;1.88;;;10.10;99.90;;;;;;5023835;28;20250;-72
2024/04/01 01:10:18;;;;;;;2.40;2.20;;;10.10;99.90;;;;;;5037051;28;20219;-72
2024/04/01 01:12:45;;;;;;;2.20;2.10;;;10.10;99.90;;;;;;5037988;28;20242;-72
2024/04/01 01:15:12;;;;;;;1.95;1.85;;;10.20;99.90;;;;;;5038590;28;20248;-72
2024/04/01 01:17:40;;;;;;;1.95;1.85;;;10.20;99.90;;;;;;5041096;28;20228;-72
2024/04/01 01:20:11;;;;;;;2.00;1.90;;;10.20;99.90;;;;;;5039845;28;20231;-71
2024/04/01 01:22:39;;;;;;;2.88;2.28;;;10.20;99.90;;;;;;5042264;28;20657;-72
2024/04/01 01:25:08;;;;;;;24.67;3.63;;;10.20;99.90;;;;;;5040615;28;20251;-71
2024/04/01 01:27:34;;;;;;;10.77;3.65;;;10.20;99.90;;;;;;5040715;28;20230;-71
2024/04/01 01:30:03;;;;;;;4.88;2.72;;;10.20;99.90;;;;;;5039185;28;20226;-72
2024/04/01 01:32:29;;;;;;;2.67;2.50;;;10.10;99.90;;;;;;5040445;28;21192;-71
2024/04/01 01:34:56;;;;;;;2.85;2.70;;;10.10;99.90;;;;;;5040501;28;20219;-72
2024/04/01 01:37:23;;;;;;;2.58;2.42;;;10.10;99.90;;;;;;5040808;28;20304;-72
2024/04/01 01:39:51;;;;;;;2.28;2.17;;;10.10;99.90;;;;;;5024950;28;20617;-71
2024/04/01 01:42:17;;;;;;;2.30;2.20;;;10.10;99.90;;;;;;5031691;28;20692;-73
2024/04/01 01:44:44;;;;;;;2.28;2.17;;;10.10;99.90;;;;;;5041218;28;20834;-72
2024/04/01 01:47:10;;;;;;;2.10;2.00;;;10.20;99.90;;;;;;5042920;28;20254;-72
2024/04/01 01:49:37;;;;;;;2.30;2.20;;;10.20;99.90;;;;;;5039609;28;20312;-73
2024/04/01 01:52:04;;;;;;;2.10;2.00;;;10.20;99.90;;;;;;5040936;28;20254;-72
2024/04/01 01:54:31;;;;;;;2.40;2.30;;;10.20;99.90;;;;;;5043218;28;20292;-73
2024/04/01 01:56:58;;;;;;;2.40;2.30;;;10.20;99.90;;;;;;5041929;28;20250;-74
2024/04/01 01:59:25;;;;;;;2.72;2.53;;;10.20;99.90;;;;;;5041299;28;20302;-73
2024/04/01 02:01:51;;;;;;;3.08;2.88;;;10.10;99.90;;;;;;5041044;28;20307;-72
2024/04/01 02:04:18;;;;;;;2.63;2.42;;;10.10;99.90;;;;;;5036625;28;20345;-71
2024/04/01 02:06:44;;;;;;;2.75;2.55;;;10.10;99.90;;;;;;5037591;28;20292;-71
2024/04/01 02:09:11;;;;;;;2.50;2.40;;;10.20;99.90;;;;;;5039210;28;20374;-71
2024/04/01 02:11:37;;;;;;;2.42;2.25;;;10.20;99.90;;;;;;5041416;28;20219;-71
2024/04/01 02:14:05;;;;;;;1.90;1.80;;;10.20;99.90;;;;;;5039093;28;20242;-72
2024/04/01 02:16:31;;;;;;;2.20;2.10;;;10.20;99.90;;;;;;5025375;28;20631;-72
2024/04/01 02:18:58;;;;;;;2.10;2.00;;;10.20;99.90;;;;;;5041597;28;20337;-72
2024/04/01 02:21:24;;;;;;;2.00;1.90;;;10.20;99.90;;;;;;5040909;28;20720;-72
2024/04/01 02:23:52;;;;;;;8.00;2.28;;;10.20;99.90;;;;;;5039490;28;20370;-72
2024/04/01 02:26:18;;;;;;;17.90;2.80;;;10.20;99.90;;;;;;5039734;28;20251;-72
2024/04/01 02:28:45;;;;;;;2.95;2.40;;;10.20;99.90;;;;;;5041665;28;20258;-72
2024/04/01 02:31:12;;;;;;;9.10;3.50;;;10.20;99.90;;;;;;5038059;28;20751;-73
2024/04/01 02:33:39;;;;;;;2.40;2.30;;;10.20;99.90;;;;;;5041977;28;20234;-71
2024/04/01 02:36:05;;;;;;;2.63;2.50;;;10.10;99.90;;;;;;5038488;28;20301;-71
2024/04/01 02:38:32;;;;;;;2.45;2.35;;;10.10;99.90;;;;;;5042384;28;20356;-71
2024/04/01 02:40:58;;;;;;;2.15;2.05;;;10.10;99.90;;;;;;5039524;28;20230;-72
2024/04/01 02:43:25;;;;;;;2.00;1.90;;;10.10;99.90;;;;;;5039591;28;20304;-72
2024/04/01 02:45:52;;;;;;;2.10;2.00;;;10.10;99.90;;;;;;5040358;28;20305;-71
2024/04/01 02:48:21;;;;;;;1.70;1.60;;;10.10;99.90;;;;;;5039745;28;20222;-71
2024/04/01 02:50:47;;;;;;;2.10;2.00;;;10.10;99.90;;;;;;5031214;28;20712;-72
2024/04/01 02:53:14;;;;;;;2.00;1.90;;;10.10;99.90;;;;;;5039747;28;20222;-72
2024/04/01 02:55:40;;;;;;;1.60;1.60;;;10.10;99.90;;;;;;5042122;28;20230;-71
2024/04/01 02:58:07;;;;;;;1.38;1.38;;;10.10;99.90;;;;;;5039544;28;20690;-71
2024/04/01 03:00:33;;;;;;;1.95;1.85;;;10.10;99.90;;;;;;5040002;28;20226;-71
2024/04/01 03:03:00;;;;;;;1.40;1.40;;;10.10;99.90;;;;;;5037580;28;20428;-70
2024/04/01 03:05:27;;;;;;;1.00;1.00;;;10.10;99.90;;;;;;5037503;28;20332;-71
2024/04/01 03:07:55;;;;;;;1.60;1.60;;;10.10;99.90;;;;;;5040662;28;20231;-72
2024/04/01 03:10:21;;;;;;;1.50;1.48;;;10.00;99.90;;;;;;5038875;28;20253;-71
2024/04/01 03:12:48;;;;;;;1.60;1.50;;;10.00;99.90;;;;;;5035692;28;20230;-72
2024/04/01 03:15:16;;;;;;;23.00;2.28;;;10.00;99.90;;;;;;5035489;28;20761;-73
2024/04/01 03:17:44;;;;;;;5.75;2.15;;;10.00;99.90;;;;;;5038384;28;20261;-71
2024/04/01 03:20:11;;;;;;;2.03;1.77;;;10.00;99.90;;;;;;5038711;28;20668;-71
2024/04/01 03:22:40;;;;;;;1.77;1.67;;;9.90;99.90;;;;;;5037387;28;20219;-71
2024/04/01 03:25:06;;;;;;;1.95;1.85;;;9.90;99.90;;;;;;5037549;28;20215;-71
2024/04/01 03:27:33;;;;;;;1.70;1.60;;;9.90;99.90;;;;;;5056471;28;20224;-71
2024/04/01 03:29:59;;;;;;;2.88;1.98;;;9.90;99.90;;;;;;5037089;28;20227;-73
2024/04/01 03:32:27;;;;;;;2.03;1.92;;;9.90;99.90;;;;;;5037889;28;20225;-71
2024/04/01 03:34:53;;;;;;;2.08;1.98;;;9.90;99.90;;;;;;5036549;28;20828;-73
2024/04/01 03:37:20;;;;;;;1.30;1.30;;;9.90;99.90;;;;;;5028218;28;20278;-71
2024/04/01 03:39:50;;;;;;;1.30;1.30;;;9.90;99.90;;;;;;5020641;28;20243;-72
2024/04/01 03:42:17;;;;;;;1.48;1.48;;;9.90;99.90;;;;;;5030731;28;20316;-71
2024/04/01 03:44:43;;;;;;;1.50;1.50;;;9.90;99.90;;;;;;5033051;28;20350;-72
2024/04/01 03:47:11;;;;;;;1.25;1.17;;;9.90;99.90;;;;;;5028921;28;20250;-72
2024/04/01 03:49:39;;;;;;;1.70;1.60;;;9.90;99.90;;;;;;5039946;28;20782;-71
2024/04/01 03:52:06;;;;;;;1.92;1.83;;;9.90;99.90;;;;;;5035979;28;20215;-71
2024/04/01 03:54:34;;;;;;;1.48;1.48;;;9.90;99.90;;;;;;5037061;28;20221;-71
2024/04/01 03:57:01;;;;;;;1.50;1.50;;;9.90;99.90;;;;;;5039222;28;20230;-73
2024/04/01 03:59:29;;;;;;;1.80;1.58;;;9.90;99.90;;;;;;5037840;28;20305;-71
2024/04/01 04:01:55;;;;;;;3.40;1.58;;;9.90;99.90;;;;;;5039622;28;20229;-71
2024/04/01 04:04:22;;;;;;;4.93;2.10;;;9.90;99.90;;;;;;5039584;28;20232;-71
2024/04/01 04:06:48;;;;;;;1.60;1.60;;;9.90;99.90;;;;;;5040878;28;20250;-73
2024/04/01 04:09:16;;;;;;;2.10;2.00;;;9.80;99.90;;;;;;5035205;28;20296;-71
2024/04/01 04:11:48;;;;;;;2.10;2.00;;;9.80;99.90;;;;;;5027329;28;20227;-71
2024/04/01 04:14:17;;;;;;;2.10;2.00;;;9.80;99.90;;;;;;5034215;28;20222;-72
2024/04/01 04:16:44;;;;;;;2.90;2.75;;;9.90;99.90;;;;;;5042334;28;20306;-71
2024/04/01 04:19:11;;;;;;;3.78;3.58;;;9.90;99.90;;;;;;5043331;28;20284;-71
2024/04/01 04:21:37;;;;;;;3.05;2.85;;;9.90;99.90;;;;;;5037405;28;20229;-71
2024/04/01 04:24:04;;;;;;;2.70;2.60;;;9.90;99.90;;;;;;5044191;28;20765;-71
2024/04/01 04:26:31;;;;;;;2.17;2.08;;;9.90;99.90;;;;;;5040990;28;20361;-71
2024/04/01 04:28:58;;;;;;;2.05;1.95;;;9.90;99.90;;;;;;5041724;28;20252;-71
2024/04/01 04:31:25;;;;;;;1.98;1.88;;;9.90;99.90;;;;;;5041993;28;20320;-72
2024/04/01 04:33:52;;;;;;;1.90;1.80;;;9.90;99.90;;;;;;5043892;28;20229;-71
2024/04/01 04:36:20;;;;;;;1.67;1.58;;;9.90;99.90;;;;;;5042327;28;20251;-72
2024/04/01 04:38:47;;;;;;;1.45;1.45;;;9.90;99.90;;;;;;5042027;28;20345;-72
2024/04/01 04:41:16;;;;;;;1.55;1.50;;;9.90;99.90;;;;;;5039306;28;20249;-71
2024/04/01 04:43:42;;;;;;;1.45;1.40;;;9.90;99.90;;;;;;5040412;28;20822;-71
2024/04/01 04:46:11;;;;;;;1.67;1.58;;;9.90;99.90;;;;;;5023401;28;20748;-73
2024/04/01 04:48:39;;;;;;;1.42;1.40;;;9.90;99.90;;;;;;5022455;28;20216;-72
2024/04/01 04:51:07;;;;;;;1.73;1.65;;;9.90;99.90;;;;;;5026671;28;20892;-72
2024/04/01 04:53:33;;;;;;;1.33;1.33;;;9.90;99.90;;;;;;5026094;28;20972;-72
2024/04/01 04:56:00;;;;;;;1.60;1.50;;;9.90;99.90;;;;;;5040807;28;20703;-72
2024/04/01 04:58:26;;;;;;;1.73;1.63;;;9.90;99.90;;;;;;5042262;28;20227;-72
2024/04/01 05:00:53;;;;;;;3.90;2.13;;;10.00;99.90;;;;;;5039250;28;20285;-72
2024/04/01 05:03:20;;;;;;;2.03;1.50;;;9.90;99.90;;;;;;5040814;28;20257;-72
2024/04/01 05:05:48;;;;;;;4.00;1.70;;;9.90;99.90;;;;;;5042478;28;20229;-72
2024/04/01 05:08:14;;;;;;;1.52;1.42;;;9.90;99.90;;;;;;5041444;28;20686;-73
2024/04/01 05:10:42;;;;;;;1.63;1.52;;;9.90;99.90;;;;;;5040769;28;20218;-73
2024/04/01 05:13:09;;;;;;;1.67;1.67;;;9.90;99.90;;;;;;5035252;28;20227;-72
2024/04/01 05:15:36;;;;;;;1.60;1.60;;;9.90;99.90;;;;;;5042049;28;20245;-72
2024/04/01 05:18:03;;;;;;;2.08;1.98;;;9.90;99.90;;;;;;5040742;28;20215;-72
2024/04/01 05:20:32;;;;;;;1.60;1.60;;;9.90;99.90;;;;;;5042502;28;20223;-72
2024/04/01 05:22:59;;;;;;;1.70;1.70;;;9.90;99.90;;;;;;5036749;28;20310;-71
2024/04/01 05:25:26;;;;;;;1.42;1.40;;;9.90;99.90;;;;;;5040372;28;20838;-73
2024/04/01 05:27:52;;;;;;;9.07;1.88;;;9.90;99.90;;;;;;5042231;28;20253;-72
2024/04/01 05:30:23;;;;;;;1.60;1.50;;;9.90;99.90;;;;;;5029597;28;20689;-73
2024/04/01 05:32:49;;;;;;;23.10;2.67;;;9.90;99.90;;;;;;5034893;28;20215;-73
2024/04/01 05:35:17;;;;;;;7.13;2.00;;;9.90;99.90;;;;;;5041056;28;20857;-72
2024/04/01 05:37:43;;;;;;;1.23;1.23;;;9.90;99.90;;;;;;5041280;28;20296;-72
2024/04/01 05:40:12;;;;;;;1.40;1.40;;;9.80;99.90;;;;;;5039531;28;20284;-72
2024/04/01 05:42:38;;;;;;;6.47;1.90;;;9.90;99.90;;;;;;5041661;28;20223;-72
2024/04/01 05:45:06;;;;;;;6.32;1.70;;;9.90;99.90;;;;;;5040718;28;20256;-72
2024/04/01 05:47:32;;;;;;;1.15;1.15;;;9.80;99.90;;;;;;5040767;28;20230;-72
2024/04/01 05:49:59;;;;;;;2.30;1.35;;;9.80;99.90;;;;;;5039747;28;20215;-73
2024/04/01 05:52:25;;;;;;;1.20;1.20;;;9.80;99.90;;;;;;5039412;28;20620;-73
2024/04/01 05:54:52;;;;;;;1.42;1.33;;;9.80;99.90;;;;;;5038108;28;20224;-72
2024/04/01 05:57:19;;;;;;;12.85;1.92;;;9.80;99.90;;;;;;5042619;28;20255;-71
2024/04/01 05:59:48;;;;;;;1.40;1.40;;;9.80;99.90;;;;;;5040751;28;20943;-72
2024/04/01 06:02:14;;;;;;;1.30;1.30;;;9.80;99.90;;;;;;5039038;28;20226;-72
2024/04/01 06:04:41;;;;;;;2.58;1.98;;;9.80;99.90;;;;;;5039748;28;20883;-72
2024/04/01 06:07:07;;;;;;;101.47;4.75;;;9.80;99.90;;;;;;5037482;28;20349;-72
2024/04/01 06:09:34;;;;;;;1.50;1.50;;;9.80;99.90;;;;;;5028339;28;20827;-72
2024/04/01 06:12:00;;;;;;;1.30;1.30;;;9.80;99.90;;;;;;5019204;28;20309;-73
2024/04/01 06:14:29;;;;;;;9.00;1.60;;;9.80;99.90;;;;;;5029794;28;20787;-71
2024/04/01 06:16:56;;;;;;;1.30;1.30;;;9.70;99.90;;;;;;5041495;28;20235;-71
2024/04/01 06:19:23;;;;;;;1.73;1.60;;;9.70;99.90;;;;;;5039708;28;20230;-71
2024/04/01 06:21:49;;;;;;;1.42;1.42;;;9.70;99.90;;;;;;5039001;28;20250;-72
2024/04/01 06:24:16;;;;;;;3.25;1.40;;;9.70;99.90;;;;;;5038503;28;20301;-71
2024/04/01 06:26:43;;;;;;;42.10;3.75;;;9.70;99.90;;;;;;5037673;28;20302;-71
2024/04/01 06:29:10;;;;;;;113.95;6.57;;;9.70;99.90;;;;;;5039859;28;20230;-71
2024/04/01 06:31:37;;;;;;;2.90;2.30;;;9.60;99.90;;;;;;5039769;28;20767;-72
2024/04/01 06:34:04;;;;;;;10.55;1.90;;;9.60;99.90;;;;;;5039788;28;20233;-71
2024/04/01 06:36:32;;;;;;;1.42;1.42;;;9.60;99.90;;;;;;5032587;28;20230;-72
2024/04/01 06:38:59;;;;;;;2.40;2.20;;;9.60;99.90;;;;;;5035512;28;20388;-72
2024/04/01 06:41:25;;;;;;;2.42;2.28;;;9.60;99.90;;;;;;5031652;28;20243;-71
2024/04/01 06:43:53;;;;;;;162.07;9.35;;;9.60;99.90;;;;;;5037852;28;20313;-73
2024/04/01 06:46:19;;;;;;;53.40;4.70;;;9.60;99.90;;;;;;5036403;28;20242;-73
2024/04/01 06:48:48;;;;;;;56.40;5.57;;;9.60;99.90;;;;;;5038190;28;20817;-72
2024/04/01 06:51:14;;;;;;;4.03;1.48;;;9.60;99.90;;;;;;5035525;28;20309;-73
2024/04/01 06:53:41;;;;;;;10.13;2.97;;;9.60;99.90;;;;;;5034363;28;20314;-74
2024/04/01 06:56:07;;;;;;;1.85;1.77;;;9.60;99.90;;;;;;5035764;28;20258;-72
2024/04/01 06:58:34;;;;;;;20.35;3.25;;;9.60;99.90;;;;;;5037704;28;20669;-73
2024/04/01 07:01:00;;;;;;;2.20;2.10;;;9.50;99.90;;;;;;5037992;28;20214;-73
2024/04/01 07:03:27;;;;;;;1.92;1.83;;;9.50;99.90;;;;;;5037968;28;20221;-72
2024/04/01 07:05:54;;;;;;;3.20;2.20;;;9.50;99.90;;;;;;5033712;28;20262;-72
2024/04/01 07:08:23;;;;;;;1.88;1.77;;;9.60;99.90;;;;;;5039504;28;20954;-72
2024/04/01 07:10:49;;;;;;;2.00;1.80;;;9.80;99.90;;;;;;5035725;28;20961;-72
2024/04/01 07:13:16;;;;;;;2.20;1.70;;;10.00;99.90;;;;;;5032210;28;20309;-72
2024/04/01 07:15:42;;;;;;;3.38;1.95;;;10.20;99.90;;;;;;5036269;28;20228;-73
2024/04/01 07:18:09;;;;;;;2.30;2.00;;;10.60;99.90;;;;;;5040071;28;20273;-74
2024/04/01 07:20:35;;;;;;;2.05;1.80;;;10.90;99.90;;;;;;5037084;28;20232;-72
2024/04/01 07:23:04;;;;;;;4.32;1.50;;;11.20;99.90;;;;;;5038640;28;20310;-72
2024/04/01 07:25:30;;;;;;;16.55;2.53;;;11.40;99.90;;;;;;5038131;28;20635;-73
2024/04/01 07:27:57;;;;;;;1.80;1.50;;;11.50;99.90;;;;;;5040327;28;20246;-72
2024/04/01 07:30:24;;;;;;;5.05;2.08;;;11.40;99.90;;;;;;5037188;28;20304;-71
2024/04/01 07:32:51;;;;;;;3.40;1.95;;;11.60;99.90;;;;;;5032212;28;20227;-72
2024/04/01 07:35:17;;;;;;;1.55;1.48;;;11.70;99.90;;;;;;5033741;28;20254;-71
2024/04/01 07:37:44;;;;;;;1.70;1.60;;;11.90;99.90;;;;;;5039347;28;20299;-71
2024/04/01 07:40:12;;;;;;;7.82;2.20;;;12.00;99.90;;;;;;5043315;28;20235;-71
2024/04/01 07:42:42;;;;;;;3.15;1.85;;;12.00;99.90;;;;;;5043084;28;20214;-72
2024/04/01 07:45:09;;;;;;;2.15;1.70;;;12.00;99.90;;;;;;5039258;28;20215;-72
2024/04/01 07:47:36;;;;;;;1.70;1.50;;;12.10;99.90;;;;;;5039647;28;20223;-72
2024/04/01 07:50:02;;;;;;;1.65;1.50;;;12.10;99.90;;;;;;5039068;28;20316;-72
2024/04/01 07:52:29;;;;;;;2.80;1.33;;;12.10;99.90;;;;;;5043192;28;20679;-72
2024/04/01 07:54:55;;;;;;;1.30;1.20;;;12.10;99.90;;;;;;5040848;28;20977;-71
2024/04/01 07:57:28;;;;;;;2.33;1.40;;;12.10;99.90;;;;;;5030450;28;20239;-71
2024/04/01 07:59:54;;;;;;;1.80;1.70;;;12.10;99.90;;;;;;5038170;28;20223;-72
2024/04/01 08:02:21;;;;;;;3.38;1.50;;;12.30;99.90;;;;;;5039631;28;20871;-72
2024/04/01 08:04:47;;;;;;;1.23;1.23;;;12.20;99.90;;;;;;5037688;28;20215;-71
2024/04/01 08:07:15;;;;;;;2.38;1.77;;;12.20;99.90;;;;;;5038745;28;20740;-71
2024/04/01 08:09:41;;;;;;;1.38;1.27;;;12.20;99.90;;;;;;5026147;28;20230;-73
2024/04/01 08:12:08;;;;;;;1.70;1.25;;;12.20;99.90;;;;;;5031106;28;20223;-73
2024/04/01 08:14:36;;;;;;;2.08;1.40;;;12.20;99.90;;;;;;5026877;28;20239;-75
2024/04/01 08:17:03;;;;;;;1.30;1.20;;;12.20;99.90;;;;;;5022550;28;20232;-72
2024/04/01 08:19:29;;;;;;;2.28;1.10;;;12.20;99.90;;;;;;5032540;28;20243;-73
2024/04/01 08:21:57;;;;;;;1.95;1.48;;;12.30;99.90;;;;;;5039859;28;20334;-74
2024/04/01 08:24:23;;;;;;;0.98;0.98;;;12.30;99.90;;;;;;5038500;28;20227;-73
2024/04/01 08:26:50;;;;;;;1.30;1.20;;;12.30;99.90;;;;;;5037342;28;20237;-74
2024/04/01 08:29:16;;;;;;;1.15;1.15;;;12.20;99.90;;;;;;5040599;28;20249;-74
2024/04/01 08:31:45;;;;;;;1.85;1.52;;;12.10;99.90;;;;;;5034553;28;20352;-73
2024/04/01 08:34:11;;;;;;;1.20;1.10;;;12.00;99.90;;;;;;5030247;28;20247;-73
2024/04/01 08:36:39;;;;;;;1.67;1.52;;;11.90;99.90;;;;;;5025982;28;20303;-75
2024/04/01 08:39:05;;;;;;;1.58;1.33;;;11.80;99.90;;;;;;5041247;28;20953;-75
2024/04/01 08:41:39;;;;;;;1.40;1.30;;;11.90;99.90;;;;;;5037889;28;20764;-74
2024/04/01 08:44:11;;;;;;;1.23;1.10;;;12.10;99.90;;;;;;5049889;28;20690;-74
2024/04/01 08:46:40;;;;;;;1.10;0.95;;;12.00;99.90;;;;;;5035869;28;20231;-75
2024/04/01 08:49:11;;;;;;;1.80;1.10;;;12.00;99.90;;;;;;5032618;28;20219;-76
2024/04/01 08:51:39;;;;;;;1.17;1.08;;;11.90;99.90;;;;;;5036537;28;20337;-75
2024/04/01 08:54:07;;;;;;;1.58;1.02;;;11.90;99.90;;;;;;5029378;28;20229;-74
2024/04/01 08:56:38;;;;;;;1.15;1.15;;;11.90;99.90;;;;;;5025372;28;20219;-73
2024/04/01 08:59:05;;;;;;;1.00;1.00;;;11.80;99.90;;;;;;5037367;28;20226;-75
2024/04/01 09:01:32;;;;;;;1.52;1.30;;;11.70;99.90;;;;;;5033760;28;20268;-75
2024/04/01 09:03:58;;;;;;;1.40;1.30;;;11.60;99.90;;;;;;5032554;28;20270;-75
2024/04/01 09:06:28;;;;;;;1.10;1.10;;;11.50;99.90;;;;;;5033874;28;20242;-75
2024/04/01 09:08:55;;;;;;;1.20;1.10;;;11.50;99.90;;;;;;5035809;28;20871;-75
2024/04/01 09:11:23;;;;;;;1.33;1.33;;;11.60;99.90;;;;;;5037929;28;20298;-75
2024/04/01 09:13:50;;;;;;;1.52;1.30;;;11.60;99.90;;;;;;5033963;28;20794;-75
2024/04/01 09:16:21;;;;;;;1.20;1.13;;;11.60;99.90;;;;;;5032746;28;20246;-75
2024/04/01 09:18:49;;;;;;;1.50;1.40;;;11.60;99.90;;;;;;5034233;28;20239;-75
2024/04/01 09:21:19;;;;;;;1.17;1.15;;;11.60;99.90;;;;;;5035403;28;20271;-74
2024/04/01 09:23:46;;;;;;;1.90;1.80;;;11.60;99.90;;;;;;5037600;28;20616;-74
2024/04/01 09:26:13;;;;;;;1.60;1.50;;;11.60;99.90;;;;;;5057160;28;20218;-74
2024/04/01 09:28:40;;;;;;;1.70;1.60;;;11.60;99.90;;;;;;5040687;28;20246;-74
2024/04/01 09:31:09;;;;;;;1.50;1.40;;;11.60;99.90;;;;;;5039262;28;20230;-74
2024/04/01 09:33:35;;;;;;;2.97;2.75;;;11.60;99.90;;;;;;5036250;28;20305;-75
2024/04/01 09:36:03;;;;;;;1.48;1.38;;;11.70;99.90;;;;;;5020942;28;20270;-74
2024/04/01 09:38:33;;;;;;;1.80;1.70;;;11.70;99.90;;;;;;5022982;28;20229;-75
2024/04/01 09:41:02;;;;;;;1.45;1.35;;;11.70;99.90;;;;;;5023032;28;20210;-75
2024/04/01 09:43:31;;;;;;;1.10;1.10;;;11.70;99.90;;;;;;5016821;28;22777;-75
2024/04/01 09:45:58;;;;;;;1.33;1.23;;;11.70;99.90;;;;;;5034322;28;20251;-74
2024/04/01 09:48:26;;;;;;;1.75;1.65;;;11.60;99.90;;;;;;5038014;28;20211;-74
2024/04/01 09:50:54;;;;;;;2.25;1.30;;;11.70;99.90;;;;;;5021457;28;20261;-74
2024/04/01 09:53:21;;;;;;;1.10;1.10;;;11.70;99.90;;;;;;5020918;28;20219;-75
2024/04/01 09:56:13;;;;;;;1.08;1.08;;;11.70;99.90;;;;;;5039639;28;20242;-74
2024/04/01 09:59:00;;;;;;;1.23;1.20;;;11.70;99.90;;;;;;5031519;28;20215;-74
2024/04/01 10:01:36;;;;;;;1.75;1.65;;;11.80;99.90;;;;;;5056690;28;20688;-74
2024/04/01 10:04:34;;;;;;;1.23;1.13;;;11.90;99.90;;;;;;5033082;28;20293;-75
2024/04/01 10:07:44;;;;;;;2.88;2.20;;;12.10;99.90;;;;;;5036570;28;20254;-74
2024/04/01 10:10:52;;;;;;;2.00;1.85;;;12.20;99.90;;;;;;5021097;28;20582;-75
2024/04/01 10:13:50;;;;;;;2.85;2.60;;;12.40;99.90;;;;;;5019275;28;20776;-74
2024/04/01 10:16:48;;;;;;;2.15;1.75;;;12.60;99.90;;;;;;5036559;28;20227;-74
2024/04/01 10:19:43;;;;;;;6.18;2.10;;;12.80;99.90;;;;;;5037683;28;20246;-74
2024/04/01 10:22:33;;;;;;;2.83;2.22;;;12.90;99.90;;;;;;5036126;28;20234;-75
2024/04/01 10:25:55;;;;;;;2.15;1.40;;;12.90;99.90;;;;;;5036181;28;20679;-74
2024/04/01 10:29:14;;;;;;;1.75;1.65;;;12.80;99.90;;;;;;4998513;28;20220;-75
2024/04/01 10:32:12;;;;;;;1.20;1.20;;;12.60;99.90;;;;;;4996471;28;20438;-74
2024/04/01 10:34:58;;;;;;;1.75;1.65;;;12.60;99.90;;;;;;5031231;28;20215;-75
2024/04/01 10:38:02;;;;;;;1.30;1.20;;;12.70;99.90;;;;;;5051276;28;20952;-74
2024/04/01 10:41:01;;;;;;;2.15;1.20;;;12.70;99.90;;;;;;5033275;28;20246;-74
2024/04/01 10:44:13;;;;;;;1.20;1.17;;;12.80;99.90;;;;;;5018955;28;20895;-75
2024/04/01 10:47:04;;;;;;;1.20;1.10;;;12.90;99.90;;;;;;5034531;28;20895;-73
2024/04/01 10:50:01;;;;;;;1.30;1.20;;;13.00;99.90;;;;;;5036300;28;20226;-73
2024/04/01 10:52:51;;;;;;;1.15;1.15;;;13.00;99.90;;;;;;5030116;28;20218;-73
2024/04/01 10:55:44;;;;;;;1.73;1.30;;;13.10;99.90;;;;;;5034499;28;20279;-74
2024/04/01 10:58:41;;;;;;;1.25;1.15;;;13.20;99.90;;;;;;5032991;28;20281;-73
2024/04/01 11:01:41;;;;;;;1.10;1.08;;;13.20;99.90;;;;;;5032358;28;20223;-74
2024/04/01 11:04:56;;;;;;;1.90;1.30;;;13.30;99.90;;;;;;5036308;28;20229;-73
2024/04/01 11:07:39;;;;;;;1.90;1.80;;;13.50;99.90;;;;;;5009627;28;20276;-74
2024/04/01 11:10:32;;;;;;;5.13;1.50;;;13.50;99.90;;;;;;5035677;28;20226;-74
2024/04/01 11:13:06;;;;;;;2.58;1.48;;;13.60;99.90;;;;;;5034243;28;20241;-72
2024/04/01 11:15:32;;;;;;;1.48;1.38;;;13.60;99.90;;;;;;5034606;28;20887;-73
2024/04/01 11:18:13;;;;;;;2.25;1.30;;;13.70;99.90;;;;;;5033252;28;20238;-74
2024/04/01 11:20:44;;;;;;;3.55;1.40;;;13.80;99.90;;;;;;5032324;28;20245;-73
2024/04/01 11:23:38;;;;;;;1.83;1.45;;;13.90;99.90;;;;;;5037553;28;20210;-73
2024/04/01 11:26:28;;;;;;;1.20;1.20;;;14.00;99.90;;;;;;5033416;28;20226;-75
2024/04/01 11:29:13;;;;;;;2.60;1.88;;;14.00;99.90;;;;;;5027748;28;20216;-74
2024/04/01 11:31:48;;;;;;;1.67;1.58;;;14.00;99.90;;;;;;5019778;28;20251;-73
2024/04/01 11:34:19;;;;;;;3.47;3.10;;;14.00;99.90;;;;;;5019852;28;20215;-75
2024/04/01 11:36:53;;;;;;;1.50;1.40;;;14.00;99.90;;;;;;5017951;28;20839;-75
2024/04/01 11:39:23;;;;;;;3.03;1.30;;;14.00;99.90;;;;;;5015499;28;20269;-71
2024/04/01 11:41:52;;;;;;;2.95;1.52;;;14.10;99.90;;;;;;5019629;28;20289;-72
2024/04/01 11:44:24;;;;;;;1.42;1.30;;;14.10;99.90;;;;;;5023291;28;20600;-72
2024/04/01 11:46:53;;;;;;;1.95;1.60;;;14.10;99.90;;;;;;5033610;28;20296;-72
2024/04/01 11:49:23;;;;;;;1.45;1.35;;;14.00;99.90;;;;;;5025223;28;20720;-72
2024/04/01 11:51:53;;;;;;;2.17;1.25;;;14.00;99.90;;;;;;5026565;28;20222;-73
2024/04/01 11:54:25;;;;;;;1.55;1.23;;;14.00;99.90;;;;;;5027998;28;20219;-72
2024/04/01 11:56:52;;;;;;;3.35;1.70;;;13.90;99.90;;;;;;5032669;28;20281;-72
2024/04/01 11:59:28;;;;;;;2.92;1.48;;;13.90;99.90;;;;;;5028369;28;20335;-72
2024/04/01 12:01:55;;;;;;;2.30;1.65;;;13.90;99.90;;;;;;5031024;28;20790;-72
2024/04/01 12:04:23;;;;;;;1.70;1.20;;;14.00;99.90;;;;;;5033221;28;20233;-72
2024/04/01 12:06:50;;;;;;;2.55;1.38;;;14.00;99.90;;;;;;5030186;28;20231;-72
2024/04/01 12:09:18;;;;;;;1.92;1.25;;;14.00;99.90;;;;;;5030524;28;20369;-72
2024/04/01 12:11:46;;;;;;;2.28;1.60;;;14.00;99.90;;;;;;5030717;28;20322;-73
2024/04/01 12:14:13;;;;;;;2.60;1.58;;;14.10;99.90;;;;;;5035070;28;20319;-72
2024/04/01 12:16:45;;;;;;;2.17;1.50;;;14.00;99.90;;;;;;5032660;28;20215;-72
2024/04/01 12:19:12;;;;;;;6.07;1.95;;;14.00;99.90;;;;;;5030673;28;20222;-73
2024/04/01 12:21:46;;;;;;;2.95;1.55;;;14.00;99.90;;;;;;5030484;28;20298;-73
2024/04/01 12:24:15;;;;;;;2.75;1.30;;;14.10;99.90;;;;;;5037387;28;20222;-73
2024/04/01 12:26:43;;;;;;;2.13;1.50;;;14.20;99.90;;;;;;5033611;28;20215;-74
2024/04/01 12:29:12;;;;;;;4.03;1.58;;;14.20;99.90;;;;;;5050976;28;20223;-73
2024/04/01 12:31:46;;;;;;;3.78;1.33;;;14.30;99.90;;;;;;5035352;28;20227;-73
2024/04/01 12:34:13;;;;;;;3.83;1.65;;;14.40;99.90;;;;;;5037486;28;20293;-73
2024/04/01 12:36:42;;;;;;;3.10;1.33;;;14.50;99.90;;;;;;5035747;28;20250;-73
2024/04/01 12:39:09;;;;;;;2.80;1.27;;;14.50;99.90;;;;;;5040407;28;20292;-72
2024/04/01 12:41:38;;;;;;;1.73;1.33;;;14.50;99.90;;;;;;5042316;28;20691;-72
2024/04/01 12:44:06;;;;;;;2.22;1.40;;;14.40;99.90;;;;;;5037599;28;20218;-73
2024/04/01 12:46:37;;;;;;;20.05;17.95;;;14.50;99.90;;;;;;5036030;28;20224;-72
2024/04/01 12:49:03;;;;;;;5.20;4.28;;;14.50;99.90;;;;;;5038372;28;20222;-72
2024/04/01 12:51:32;;;;;;;5.50;2.38;;;14.40;99.90;;;;;;5035877;28;20218;-73
2024/04/01 12:54:29;;;;;;;2.67;2.05;;;14.40;99.90;;;;;;5035853;28;20782;-74
2024/04/01 12:57:09;;;;;;;4.47;1.65;;;14.30;99.90;;;;;;5037129;28;20254;-72
2024/04/01 12:59:45;;;;;;;1.98;1.63;;;14.30;99.90;;;;;;5036570;28;20225;-74
2024/04/01 13:02:28;;;;;;;3.05;1.50;;;14.30;99.90;;;;;;5033786;28;20245;-74
2024/04/01 13:05:09;;;;;;;2.97;1.75;;;14.20;99.90;;;;;;5038524;28;20771;-73